Time;durP1;ratioP1;P1;durP2;ratioP2;P2;SDS_P1;SDS_P2;PMS_P1;PMS_P2;Temp;Humidity;BMP_temperature;BMP_pressure;BME280_temperature;BME280_humidity;BME280_pressure;Samples;Min_cycle;Max_cycle;Signal;HPM_P1;HPM_P2
2024/04/07 00:01:33;;;;;;;7.97;5.50;;;17.50;99.90;;;;;;5050139;28;20447;-81
2024/04/07 00:04:01;;;;;;;8.43;4.43;;;17.50;99.90;;;;;;5050201;28;20450;-81
2024/04/07 00:06:28;;;;;;;8.83;5.50;;;17.50;99.90;;;;;;5050394;28;20459;-80
2024/04/07 00:08:54;;;;;;;6.90;4.47;;;17.50;99.90;;;;;;5050141;28;20485;-79
2024/04/07 00:11:21;;;;;;;5.00;4.17;;;17.50;99.90;;;;;;5049939;28;20447;-84
2024/04/07 00:13:47;;;;;;;5.63;3.60;;;17.50;99.90;;;;;;5049665;28;20447;-80
2024/04/07 00:16:14;;;;;;;5.07;2.90;;;17.40;99.90;;;;;;5049914;28;20568;-78
2024/04/07 00:18:40;;;;;;;7.07;4.30;;;17.30;99.90;;;;;;5051869;28;20540;-80
2024/04/07 00:21:09;;;;;;;4.70;3.83;;;17.30;99.90;;;;;;5056366;28;20476;-81
2024/04/07 00:23:35;;;;;;;8.30;4.73;;;17.30;99.90;;;;;;5057047;28;20451;-81
2024/04/07 00:26:01;;;;;;;5.57;4.40;;;17.30;99.90;;;;;;5057626;28;20456;-79
2024/04/07 00:28:28;;;;;;;7.57;3.80;;;17.30;99.90;;;;;;5057709;28;20446;-80
2024/04/07 00:30:55;;;;;;;4.10;3.30;;;17.20;99.90;;;;;;5057627;28;20468;-78
2024/04/07 00:33:22;;;;;;;6.27;3.83;;;17.30;99.90;;;;;;5056593;28;20464;-80
2024/04/07 00:35:55;;;;;;;6.17;4.00;;;17.30;99.90;;;;;;5049176;28;20486;-81
2024/04/07 00:38:23;;;;;;;7.13;4.27;;;17.20;99.90;;;;;;5048301;28;20500;-80
2024/04/07 00:40:53;;;;;;;3.87;3.10;;;17.30;99.90;;;;;;5046728;28;20521;-80
2024/04/07 00:43:19;;;;;;;8.30;3.77;;;17.30;99.90;;;;;;5043529;28;20439;-80
2024/04/07 00:45:46;;;;;;;6.70;4.00;;;17.10;99.90;;;;;;5049242;28;20466;-82
2024/04/07 00:48:17;;;;;;;10.60;4.80;;;17.30;99.90;;;;;;5049220;28;20956;-82
2024/04/07 00:50:45;;;;;;;7.13;3.30;;;17.20;99.90;;;;;;5050059;28;20443;-80
2024/04/07 00:53:13;;;;;;;6.20;4.10;;;17.10;99.90;;;;;;5051544;28;20443;-80
2024/04/07 00:55:43;;;;;;;6.90;3.63;;;17.00;99.90;;;;;;5053042;28;20488;-81
2024/04/07 00:58:09;;;;;;;5.00;4.00;;;16.90;99.90;;;;;;5046208;28;20451;-80
2024/04/07 01:00:36;;;;;;;4.27;3.30;;;16.90;99.90;;;;;;5053933;28;20494;-81
2024/04/07 01:03:03;;;;;;;8.73;4.57;;;16.90;99.90;;;;;;5056949;28;20461;-80
2024/04/07 01:05:38;;;;;;;5.60;4.30;;;16.80;99.90;;;;;;5055364;28;20473;-80
2024/04/07 01:08:05;;;;;;;5.17;3.33;;;16.80;99.90;;;;;;5052791;28;20462;-82
2024/04/07 01:10:32;;;;;;;8.90;5.23;;;16.80;99.90;;;;;;5053615;28;20444;-78
2024/04/07 01:13:00;;;;;;;7.10;5.10;;;16.90;99.90;;;;;;5059415;28;20441;-81
2024/04/07 01:15:27;;;;;;;9.00;5.50;;;16.90;99.90;;;;;;5058218;28;20504;-79
2024/04/07 01:17:53;;;;;;;17.93;6.07;;;16.90;99.90;;;;;;5055407;28;20476;-81
2024/04/07 01:20:20;;;;;;;5.57;4.43;;;16.90;99.90;;;;;;5051834;28;20449;-81
2024/04/07 01:22:46;;;;;;;3.80;3.20;;;16.90;99.90;;;;;;5053588;28;20468;-81
2024/04/07 01:25:17;;;;;;;4.60;2.60;;;17.00;99.90;;;;;;5059453;28;20465;-80
2024/04/07 01:27:46;;;;;;;4.40;3.23;;;17.10;99.90;;;;;;5059390;28;20485;-81
2024/04/07 01:30:13;;;;;;;3.53;2.93;;;17.00;99.90;;;;;;5059241;28;20460;-81
2024/04/07 01:32:42;;;;;;;6.77;4.40;;;17.10;99.90;;;;;;5058794;28;20475;-81
2024/04/07 01:35:09;;;;;;;5.00;3.20;;;17.00;99.90;;;;;;5058761;28;20508;-80
2024/04/07 01:37:35;;;;;;;4.93;3.77;;;17.00;99.90;;;;;;5058889;28;20463;-80
2024/04/07 01:40:03;;;;;;;5.23;3.17;;;17.00;99.90;;;;;;5058309;28;20462;-79
2024/04/07 01:42:30;;;;;;;3.67;2.80;;;17.00;99.90;;;;;;5056263;28;20513;-80
2024/04/07 01:44:57;;;;;;;3.43;2.60;;;17.10;99.90;;;;;;5057707;28;20458;-81
2024/04/07 01:47:23;;;;;;;4.57;2.97;;;17.10;99.90;;;;;;5058214;28;20473;-81
2024/04/07 01:49:51;;;;;;;5.10;4.00;;;17.10;99.90;;;;;;5057434;28;20439;-80
2024/04/07 01:52:17;;;;;;;7.30;3.70;;;17.10;99.90;;;;;;5059975;28;20442;-80
2024/04/07 01:54:44;;;;;;;4.93;3.87;;;17.10;99.90;;;;;;5059520;28;20553;-81
2024/04/07 01:57:11;;;;;;;11.90;4.63;;;17.10;99.90;;;;;;5060358;28;20421;-80
2024/04/07 01:59:39;;;;;;;4.43;3.40;;;17.00;99.90;;;;;;5059568;28;20434;-81
2024/04/07 02:02:05;;;;;;;4.50;3.30;;;17.00;99.90;;;;;;5044468;28;20461;-80
2024/04/07 02:04:32;;;;;;;4.80;2.80;;;17.00;99.90;;;;;;5055777;28;20463;-80
2024/04/07 02:06:58;;;;;;;7.27;2.50;;;17.10;99.90;;;;;;5052800;28;20489;-81
2024/04/07 02:09:25;;;;;;;6.67;3.47;;;17.10;99.90;;;;;;5054161;28;20441;-80
2024/04/07 02:11:51;;;;;;;4.97;3.70;;;17.00;99.90;;;;;;5053850;28;20457;-80
2024/04/07 02:14:18;;;;;;;6.20;3.23;;;16.90;99.90;;;;;;5052418;28;20488;-80
2024/04/07 02:16:46;;;;;;;8.23;4.17;;;16.90;99.90;;;;;;5053044;28;20487;-81
2024/04/07 02:19:14;;;;;;;4.30;2.73;;;17.00;99.90;;;;;;5053675;28;20460;-81
2024/04/07 02:21:40;;;;;;;3.30;2.90;;;17.00;99.90;;;;;;5053451;28;20773;-80
2024/04/07 02:24:07;;;;;;;5.93;3.63;;;17.00;99.90;;;;;;5052306;28;20473;-79
2024/04/07 02:26:33;;;;;;;6.90;4.10;;;17.00;99.90;;;;;;5052309;28;20446;-81
2024/04/07 02:29:00;;;;;;;9.97;3.90;;;17.10;99.90;;;;;;5051792;28;20453;-81
2024/04/07 02:31:26;;;;;;;5.03;4.17;;;17.10;99.90;;;;;;5051779;28;20450;-80
2024/04/07 02:33:55;;;;;;;5.30;4.70;;;17.10;99.90;;;;;;5050689;28;20462;-80
2024/04/07 02:36:21;;;;;;;5.13;3.40;;;17.20;99.90;;;;;;5052318;28;20521;-81
2024/04/07 02:38:48;;;;;;;7.27;4.50;;;17.10;99.90;;;;;;5051912;28;20443;-81
2024/04/07 02:41:15;;;;;;;5.80;3.43;;;17.20;99.90;;;;;;5051451;28;20585;-82
2024/04/07 02:43:42;;;;;;;6.17;3.60;;;17.20;99.90;;;;;;5051658;28;20467;-80
2024/04/07 02:48:55;;;;;;;5.67;4.10;;;17.20;99.90;;;;;;5051877;28;20469;-79
2024/04/07 02:51:22;;;;;;;8.80;5.03;;;17.20;99.90;;;;;;5050298;28;20469;-79
2024/04/07 02:53:49;;;;;;;6.80;3.83;;;17.20;99.90;;;;;;5053781;28;20438;-81
2024/04/07 02:56:16;;;;;;;3.63;2.57;;;17.30;99.90;;;;;;5057748;28;20505;-81
2024/04/07 02:58:42;;;;;;;6.27;2.73;;;17.30;99.90;;;;;;5049309;28;20449;-81
2024/04/07 03:01:10;;;;;;;3.80;2.60;;;17.30;99.90;;;;;;5056969;28;20761;-82
2024/04/07 03:03:36;;;;;;;4.93;2.93;;;17.40;99.90;;;;;;5055405;28;20461;-81
2024/04/07 03:06:08;;;;;;;4.87;3.27;;;17.50;99.90;;;;;;5056007;28;20471;-80
2024/04/07 03:08:34;;;;;;;6.93;3.03;;;17.40;99.90;;;;;;5048433;28;20466;-79
2024/04/07 03:11:02;;;;;;;2.13;1.90;;;17.30;99.90;;;;;;5049969;28;20457;-80
2024/04/07 03:13:28;;;;;;;4.90;3.20;;;17.30;99.90;;;;;;5050486;28;20453;-81
2024/04/07 03:15:55;;;;;;;3.40;2.80;;;17.40;99.90;;;;;;5051306;28;20554;-80
2024/04/07 03:18:21;;;;;;;5.20;2.67;;;17.40;99.90;;;;;;5052354;28;20425;-80
2024/04/07 03:20:48;;;;;;;4.60;3.17;;;17.40;99.90;;;;;;5051626;28;20458;-80
2024/04/07 03:23:16;;;;;;;4.60;2.47;;;17.50;99.90;;;;;;5051906;28;20444;-80
2024/04/07 03:25:43;;;;;;;2.97;2.27;;;17.40;99.90;;;;;;5053236;28;20479;-80
2024/04/07 03:28:09;;;;;;;2.90;2.00;;;17.50;99.90;;;;;;5055905;28;20453;-80
2024/04/07 03:30:37;;;;;;;3.40;2.27;;;17.50;99.90;;;;;;5054349;28;21007;-81
2024/04/07 03:33:03;;;;;;;4.47;2.83;;;17.50;99.90;;;;;;5048858;28;20445;-81
2024/04/07 03:35:32;;;;;;;4.93;3.13;;;17.50;99.90;;;;;;5046340;28;20492;-81
2024/04/07 03:37:59;;;;;;;2.90;2.07;;;17.50;99.90;;;;;;5047793;28;20453;-81
2024/04/07 03:40:27;;;;;;;4.80;2.30;;;17.50;99.90;;;;;;5049463;28;20442;-80
2024/04/07 03:42:55;;;;;;;2.73;2.00;;;17.50;99.70;;;;;;5049625;28;20481;-81
2024/04/07 03:45:22;;;;;;;6.23;2.33;;;17.50;99.80;;;;;;5049787;28;20925;-80
2024/04/07 03:47:49;;;;;;;2.90;2.10;;;17.30;99.90;;;;;;5046075;28;20937;-79
2024/04/07 03:50:16;;;;;;;4.37;2.33;;;17.30;99.90;;;;;;5050056;28;20462;-81
2024/04/07 03:52:42;;;;;;;4.30;1.60;;;17.30;99.90;;;;;;5049858;28;20443;-81
2024/04/07 03:55:09;;;;;;;3.43;1.97;;;17.30;99.90;;;;;;5046202;28;20510;-82
2024/04/07 03:57:36;;;;;;;3.17;1.80;;;17.30;99.90;;;;;;5046118;28;20450;-81
2024/04/07 04:00:04;;;;;;;4.80;2.40;;;17.30;99.90;;;;;;5038198;28;20496;-80
2024/04/07 04:02:32;;;;;;;2.37;1.93;;;17.20;99.90;;;;;;5042404;28;20928;-81
2024/04/07 04:04:59;;;;;;;7.60;2.90;;;17.20;99.90;;;;;;5039993;28;20628;-83
2024/04/07 04:07:27;;;;;;;3.87;2.47;;;17.20;99.90;;;;;;5041350;28;20468;-84
2024/04/07 04:09:54;;;;;;;6.47;2.10;;;17.20;99.80;;;;;;5041479;28;20492;-82
2024/04/07 04:12:21;;;;;;;12.10;2.27;;;17.30;99.90;;;;;;5041457;28;20460;-83
2024/04/07 04:14:50;;;;;;;3.10;2.20;;;17.40;99.70;;;;;;5041790;28;20473;-82
2024/04/07 04:17:18;;;;;;;3.77;2.50;;;17.40;99.70;;;;;;5048103;28;20479;-81
2024/04/07 04:19:44;;;;;;;5.40;2.33;;;17.40;99.70;;;;;;5048449;28;20439;-78
2024/04/07 04:22:11;;;;;;;4.33;2.27;;;17.40;99.90;;;;;;5051112;28;20477;-80
2024/04/07 04:24:37;;;;;;;5.53;2.57;;;17.40;99.90;;;;;;5051589;28;20467;-82
2024/04/07 04:27:04;;;;;;;5.73;2.27;;;17.40;99.90;;;;;;5050704;28;20470;-82
2024/04/07 04:29:30;;;;;;;4.90;2.77;;;17.40;99.90;;;;;;5051974;28;20446;-81
2024/04/07 04:31:59;;;;;;;4.10;2.13;;;17.40;99.90;;;;;;5043840;28;20447;-81
2024/04/07 04:34:25;;;;;;;3.60;2.50;;;17.30;99.90;;;;;;5047745;28;20491;-79
2024/04/07 04:36:52;;;;;;;7.07;2.80;;;17.30;99.90;;;;;;5051437;28;20481;-81
2024/04/07 04:39:18;;;;;;;10.20;2.87;;;17.30;99.90;;;;;;5046984;28;20477;-83
2024/04/07 04:41:46;;;;;;;6.23;3.03;;;17.30;99.90;;;;;;5049589;28;20449;-81
2024/04/07 04:44:13;;;;;;;4.50;2.57;;;17.30;99.90;;;;;;5045240;28;20480;-81
2024/04/07 04:46:41;;;;;;;5.70;2.67;;;17.20;99.90;;;;;;5040608;28;20453;-82
2024/04/07 04:49:10;;;;;;;6.43;2.70;;;17.20;99.90;;;;;;5040144;28;20445;-83
2024/04/07 04:51:37;;;;;;;4.60;3.00;;;17.20;99.90;;;;;;5040347;28;20449;-83
2024/04/07 04:54:03;;;;;;;7.23;2.87;;;17.10;99.90;;;;;;5044704;28;20967;-82
2024/04/07 04:56:30;;;;;;;10.23;3.10;;;17.10;99.90;;;;;;5051693;28;20540;-81
2024/04/07 04:58:57;;;;;;;5.20;2.73;;;17.10;99.90;;;;;;5051110;28;20453;-79
2024/04/07 05:01:25;;;;;;;7.17;2.50;;;17.00;99.90;;;;;;5047731;28;20462;-80
2024/04/07 05:03:53;;;;;;;5.23;3.93;;;17.00;99.90;;;;;;5049102;28;20445;-81
2024/04/07 05:06:21;;;;;;;3.77;2.37;;;17.00;99.90;;;;;;5048914;28;20443;-81
2024/04/07 05:08:49;;;;;;;6.43;2.53;;;17.00;99.90;;;;;;5043193;28;20528;-82
2024/04/07 05:11:17;;;;;;;7.43;2.90;;;17.00;99.90;;;;;;5042181;28;20449;-81
2024/04/07 05:13:43;;;;;;;5.03;2.70;;;17.00;99.90;;;;;;5042217;28;20491;-82
2024/04/07 05:16:11;;;;;;;2.97;2.27;;;17.00;99.90;;;;;;5041656;28;20509;-82
2024/04/07 05:18:37;;;;;;;5.63;3.67;;;17.10;99.90;;;;;;5043863;28;20449;-83
2024/04/07 05:21:05;;;;;;;6.00;2.50;;;17.10;99.90;;;;;;5046751;28;20465;-82
2024/04/07 05:23:33;;;;;;;3.13;2.27;;;17.00;99.90;;;;;;5046197;28;20517;-81
2024/04/07 05:26:08;;;;;;;5.40;2.80;;;17.00;99.90;;;;;;5047835;28;20473;-82
2024/04/07 05:28:34;;;;;;;7.00;3.50;;;17.10;99.90;;;;;;5052166;28;20480;-81
2024/04/07 05:31:04;;;;;;;3.80;2.47;;;17.00;99.90;;;;;;5060542;28;20433;-80
2024/04/07 05:33:31;;;;;;;7.40;3.30;;;17.00;99.90;;;;;;5060146;28;20477;-80
2024/04/07 05:35:58;;;;;;;6.13;2.70;;;17.10;99.90;;;;;;5060222;28;20479;-79
2024/04/07 05:38:23;;;;;;;4.00;3.00;;;17.10;99.90;;;;;;5060332;28;20458;-79
2024/04/07 05:40:59;;;;;;;5.10;2.47;;;17.10;99.90;;;;;;5060584;28;20496;-81
2024/04/07 05:43:25;;;;;;;4.77;2.77;;;17.10;99.90;;;;;;5059231;28;20427;-78
2024/04/07 05:45:52;;;;;;;6.57;2.73;;;17.10;99.90;;;;;;5048633;28;20457;-84
2024/04/07 05:48:20;;;;;;;4.67;2.10;;;17.10;99.90;;;;;;5045378;28;20476;-84
2024/04/07 05:50:47;;;;;;;3.83;1.97;;;17.10;99.90;;;;;;5050494;28;20529;-82
2024/04/07 05:53:14;;;;;;;3.43;2.10;;;17.10;99.90;;;;;;5056909;28;20447;-82
2024/04/07 05:55:41;;;;;;;2.70;1.83;;;17.20;99.90;;;;;;5056676;28;20555;-85
2024/04/07 05:58:09;;;;;;;3.60;1.90;;;17.20;99.90;;;;;;5056872;28;20480;-82
2024/04/07 06:00:36;;;;;;;5.33;2.03;;;17.30;99.90;;;;;;5056446;28;20446;-82
2024/04/07 06:03:02;;;;;;;2.43;1.77;;;17.30;99.90;;;;;;5055721;28;20490;-83
2024/04/07 06:05:29;;;;;;;4.67;1.60;;;17.40;99.90;;;;;;5057108;28;20457;-82
2024/04/07 06:07:55;;;;;;;3.37;2.10;;;17.30;99.90;;;;;;5055119;28;20447;-85
2024/04/07 06:10:23;;;;;;;2.33;1.50;;;17.30;99.90;;;;;;5047033;28;20471;-81
2024/04/07 06:12:49;;;;;;;11.63;2.90;;;17.40;99.90;;;;;;5049270;28;20473;-80
2024/04/07 06:15:19;;;;;;;7.07;2.10;;;17.50;99.90;;;;;;5052352;28;20474;-82
2024/04/07 06:17:46;;;;;;;2.50;1.53;;;17.50;99.90;;;;;;5050539;28;20517;-81
2024/04/07 06:20:13;;;;;;;5.63;1.60;;;17.50;99.90;;;;;;5043933;28;20440;-84
2024/04/07 06:22:39;;;;;;;4.13;1.50;;;17.50;99.90;;;;;;5053103;28;20438;-81
2024/04/07 06:25:06;;;;;;;6.63;2.30;;;17.60;99.90;;;;;;5052120;28;20460;-81
2024/04/07 06:27:33;;;;;;;5.83;2.50;;;17.50;99.90;;;;;;5053757;28;20566;-83
2024/04/07 06:30:00;;;;;;;8.10;3.90;;;17.50;99.90;;;;;;5046501;28;20445;-79
2024/04/07 06:32:27;;;;;;;7.10;1.40;;;17.50;99.90;;;;;;5050556;28;20450;-83
2024/04/07 06:34:55;;;;;;;5.00;1.80;;;17.60;99.90;;;;;;5049276;28;20541;-81
2024/04/07 06:37:21;;;;;;;3.73;1.50;;;17.50;99.90;;;;;;5049896;28;21038;-82
2024/04/07 06:39:48;;;;;;;2.20;1.43;;;17.50;99.90;;;;;;5047460;28;20447;-80
2024/04/07 06:42:23;;;;;;;4.17;1.40;;;17.40;99.90;;;;;;5053908;28;20427;-81
2024/04/07 06:44:55;;;;;;;2.90;1.70;;;17.30;99.90;;;;;;5052729;28;20504;-83
2024/04/07 06:47:56;;;;;;;;;;;;;;;;;;;;;
2024/04/07 06:50:24;;;;;;;4.27;1.80;;;17.10;99.90;;;;;;5046009;28;20457;-81
2024/04/07 06:52:50;;;;;;;7.90;1.90;;;17.30;99.90;;;;;;5056825;28;20511;-83
2024/04/07 06:55:19;;;;;;;6.27;2.10;;;17.40;99.90;;;;;;5052511;28;20464;-79
2024/04/07 06:57:58;;;;;;;4.10;1.63;;;17.50;99.90;;;;;;5056195;28;20793;-81
2024/04/07 07:00:25;;;;;;;4.97;2.70;;;17.50;99.90;;;;;;5057426;28;20465;-82
2024/04/07 07:02:53;;;;;;;2.97;2.00;;;17.50;99.90;;;;;;5048181;28;20477;-81
2024/04/07 07:08:07;;;;;;;6.20;2.53;;;17.50;99.90;;;;;;5055681;28;20451;-83
2024/04/07 07:10:39;;;;;;;5.63;3.07;;;17.40;99.90;;;;;;5055149;28;20477;-83
2024/04/07 07:13:11;;;;;;;6.90;1.90;;;17.40;99.90;;;;;;5051238;28;20442;-85
2024/04/07 07:15:46;;;;;;;4.90;1.70;;;17.40;99.90;;;;;;5052261;28;20460;-81
2024/04/07 07:18:18;;;;;;;3.77;2.00;;;17.40;99.90;;;;;;5045662;28;20440;-84
2024/04/07 07:20:44;;;;;;;3.83;2.00;;;17.40;99.90;;;;;;5053289;28;20452;-83
2024/04/07 07:23:35;;;;;;;3.40;1.70;;;17.70;99.90;;;;;;5053711;28;20507;-85
2024/04/07 07:26:02;;;;;;;7.03;3.23;;;17.90;99.90;;;;;;5046006;28;20519;-84
2024/04/07 07:28:42;;;;;;;3.23;1.70;;;17.90;99.90;;;;;;5054657;28;20439;-84
2024/04/07 07:31:19;;;;;;;6.60;4.10;;;18.00;99.90;;;;;;5046468;28;20431;-85
2024/04/07 07:33:50;;;;;;;7.63;1.63;;;18.00;99.90;;;;;;5049957;28;20526;-87
2024/04/07 07:36:18;;;;;;;9.10;5.70;;;18.10;99.90;;;;;;5053658;28;20480;-86
2024/04/07 07:38:51;;;;;;;7.10;3.70;;;18.10;99.90;;;;;;5051436;28;20508;-81
2024/04/07 07:41:22;;;;;;;5.63;2.60;;;18.10;99.90;;;;;;5050369;28;20434;-83
2024/04/07 07:43:49;;;;;;;6.53;2.03;;;18.00;99.90;;;;;;5051868;28;20455;-84
2024/04/07 07:46:20;;;;;;;4.47;2.30;;;18.10;99.90;;;;;;5050946;28;20487;-87
2024/04/07 07:48:56;;;;;;;5.43;2.10;;;18.10;99.90;;;;;;5050613;28;20435;-86
2024/04/07 07:51:35;;;;;;;5.87;2.63;;;18.40;99.90;;;;;;5042778;28;20497;-87
2024/04/07 07:54:14;;;;;;;4.57;2.00;;;18.60;99.90;;;;;;5050883;28;20445;-87
2024/04/07 07:56:41;;;;;;;2.70;2.13;;;18.70;99.90;;;;;;5047497;28;20479;-86
2024/04/07 07:59:33;;;;;;;5.40;2.50;;;19.30;99.90;;;;;;5046202;28;20475;-86
2024/04/07 08:02:01;;;;;;;1.73;1.30;;;20.00;99.90;;;;;;5049078;28;20467;-88
2024/04/07 08:07:34;;;;;;;5.00;1.80;;;21.70;98.90;;;;;;5052158;28;20465;-85
2024/04/07 08:10:03;;;;;;;4.17;1.70;;;21.90;98.70;;;;;;5053878;28;20478;-87
2024/04/07 08:12:32;;;;;;;9.10;2.00;;;21.80;98.40;;;;;;5054636;28;20552;-86
2024/04/07 08:14:59;;;;;;;2.40;1.23;;;21.80;98.60;;;;;;5048322;28;20498;-80
2024/04/07 08:17:26;;;;;;;4.80;1.47;;;21.50;98.30;;;;;;5051846;28;20493;-82
2024/04/07 08:19:54;;;;;;;2.07;1.30;;;21.10;98.30;;;;;;5054366;28;20442;-84
2024/04/07 08:22:21;;;;;;;4.13;1.73;;;20.50;98.10;;;;;;5047391;28;20944;-84
2024/04/07 08:24:48;;;;;;;4.33;1.33;;;20.90;97.90;;;;;;5041693;28;20471;-85
2024/04/07 08:27:15;;;;;;;2.30;1.20;;;21.50;97.20;;;;;;5036310;28;20472;-84
2024/04/07 08:29:42;;;;;;;3.67;1.10;;;22.50;95.90;;;;;;5040373;28;20456;-85
2024/04/07 08:32:09;;;;;;;3.20;1.20;;;23.10;94.20;;;;;;5040930;28;20444;-85
2024/04/07 08:34:36;;;;;;;3.90;1.30;;;23.30;93.30;;;;;;5033798;28;20484;-84
2024/04/07 08:37:04;;;;;;;5.20;1.40;;;23.00;93.40;;;;;;5039603;28;20518;-83
2024/04/07 08:39:31;;;;;;;5.63;1.00;;;23.60;93.10;;;;;;5051728;28;20427;-82
2024/04/07 08:42:00;;;;;;;3.47;1.40;;;24.00;92.70;;;;;;5051877;28;20461;-82
2024/04/07 08:44:28;;;;;;;3.13;1.30;;;24.50;91.90;;;;;;5047986;28;20470;-86
2024/04/07 08:46:56;;;;;;;2.63;1.20;;;24.90;91.40;;;;;;5041500;28;20438;-83
2024/04/07 08:49:22;;;;;;;2.23;1.10;;;25.30;90.40;;;;;;5041215;28;20442;-85
2024/04/07 08:51:51;;;;;;;2.80;1.30;;;24.80;89.00;;;;;;5040340;28;20481;-84
2024/04/07 08:54:18;;;;;;;1.97;1.40;;;24.30;90.30;;;;;;5030952;28;20467;-70
2024/04/07 08:56:46;;;;;;;3.27;1.20;;;23.60;90.50;;;;;;5031284;28;20998;-68
2024/04/07 08:59:20;;;;;;;3.03;1.47;;;23.30;91.50;;;;;;5037276;28;20470;-81
2024/04/07 09:08:21;;;;;;;1.57;0.80;;;23.10;91.70;;;;;;5004101;28;20509;-82
2024/04/07 09:10:49;;;;;;;1.90;1.07;;;22.90;92.10;;;;;;5041981;28;20456;-78
2024/04/07 09:13:17;;;;;;;2.70;1.47;;;23.00;92.30;;;;;;5035184;28;20494;-82
2024/04/07 09:15:46;;;;;;;2.80;1.47;;;23.10;91.90;;;;;;5042230;28;20484;-85
2024/04/07 09:18:14;;;;;;;3.43;1.10;;;23.40;91.40;;;;;;5042703;28;20479;-82
2024/04/07 09:20:40;;;;;;;4.10;1.50;;;23.30;91.30;;;;;;5044572;28;20451;-82
2024/04/07 09:23:07;;;;;;;6.43;1.60;;;23.20;91.50;;;;;;5048508;28;20466;-83
2024/04/07 09:25:34;;;;;;;4.60;1.13;;;23.20;91.30;;;;;;5042028;28;20551;-82
2024/04/07 09:28:03;;;;;;;2.50;0.83;;;23.00;91.60;;;;;;5047105;28;20463;-82
2024/04/07 09:30:30;;;;;;;2.97;1.00;;;23.40;91.50;;;;;;5049772;28;20953;-82
2024/04/07 09:32:58;;;;;;;8.77;1.50;;;23.50;91.40;;;;;;5049941;28;20465;-82
2024/04/07 09:35:25;;;;;;;2.70;1.30;;;23.50;91.00;;;;;;5052381;28;20491;-82
2024/04/07 09:37:52;;;;;;;2.23;1.00;;;23.40;90.90;;;;;;5053590;28;20475;-81
2024/04/07 09:40:18;;;;;;;4.87;1.70;;;23.40;91.20;;;;;;5056152;28;20459;-82
2024/04/07 09:42:46;;;;;;;4.10;1.20;;;22.90;91.20;;;;;;5057254;28;20478;-80
2024/04/07 09:45:16;;;;;;;2.40;1.00;;;22.90;91.60;;;;;;5056734;28;20459;-82
2024/04/07 09:47:50;;;;;;;2.30;1.10;;;22.60;91.70;;;;;;5042058;28;20448;-79
2024/04/07 09:50:27;;;;;;;3.30;1.50;;;22.40;91.60;;;;;;5050796;28;20498;-80
2024/04/07 09:53:00;;;;;;;1.77;0.90;;;22.20;91.70;;;;;;5058581;28;20510;-79
2024/04/07 09:55:32;;;;;;;3.47;2.00;;;22.40;91.90;;;;;;5051861;28;20869;-83
2024/04/07 09:58:00;;;;;;;1.40;0.90;;;22.20;92.00;;;;;;5052527;28;20507;-82
2024/04/07 10:00:34;;;;;;;2.90;1.60;;;22.30;92.30;;;;;;5058928;28;20479;-82
2024/04/07 10:03:05;;;;;;;4.00;0.97;;;22.60;91.90;;;;;;5059165;28;20451;-82
2024/04/07 10:05:31;;;;;;;5.10;1.97;;;22.40;91.60;;;;;;5058252;28;20486;-81
2024/04/07 10:07:59;;;;;;;1.73;1.10;;;22.60;92.10;;;;;;5054053;28;20449;-82
2024/04/07 10:10:25;;;;;;;3.33;1.37;;;22.70;91.50;;;;;;5055390;28;20442;-79
2024/04/07 10:12:53;;;;;;;1.87;1.10;;;22.70;91.80;;;;;;5055603;28;20459;-80
2024/04/07 10:15:21;;;;;;;5.90;1.60;;;22.30;91.50;;;;;;5055936;28;20487;-80
2024/04/07 10:17:49;;;;;;;2.83;1.10;;;22.20;91.90;;;;;;5055879;28;20479;-80
2024/04/07 10:20:15;;;;;;;2.10;1.20;;;21.90;92.30;;;;;;5047680;28;20467;-80
2024/04/07 10:22:43;;;;;;;2.20;0.97;;;22.00;92.40;;;;;;5055672;28;20451;-81
2024/04/07 10:25:10;;;;;;;4.50;1.00;;;21.90;92.30;;;;;;5054408;28;20477;-79
2024/04/07 10:27:44;;;;;;;2.57;1.07;;;21.70;92.40;;;;;;5054243;28;20446;-81
2024/04/07 10:30:11;;;;;;;2.20;1.10;;;21.70;93.10;;;;;;5052883;28;20442;-80
2024/04/07 10:32:40;;;;;;;5.27;1.10;;;22.00;93.00;;;;;;5055074;28;20469;-81
2024/04/07 10:35:09;;;;;;;2.90;1.17;;;21.90;93.00;;;;;;5054061;28;20474;-83
2024/04/07 10:37:40;;;;;;;3.07;1.20;;;22.00;92.90;;;;;;5055297;28;20474;-83
2024/04/07 10:40:08;;;;;;;2.87;1.40;;;22.10;92.70;;;;;;5055709;28;20444;-85
2024/04/07 10:42:36;;;;;;;4.37;1.63;;;22.20;92.70;;;;;;5058241;28;20436;-86
2024/04/07 10:45:03;;;;;;;3.53;1.30;;;22.40;92.30;;;;;;5048687;28;20462;-87
2024/04/07 10:47:34;;;;;;;6.60;1.60;;;22.20;92.00;;;;;;5050782;28;20530;-86
2024/04/07 10:50:00;;;;;;;3.60;2.03;;;22.10;92.20;;;;;;5058261;28;20442;-83
2024/04/07 10:52:31;;;;;;;2.50;1.00;;;21.70;92.40;;;;;;5059026;28;20469;-82
2024/04/07 10:54:58;;;;;;;1.80;1.10;;;22.10;92.40;;;;;;5051162;28;20625;-82
2024/04/07 10:57:25;;;;;;;2.57;1.00;;;22.30;92.30;;;;;;5051053;28;20479;-83
2024/04/07 10:59:51;;;;;;;3.93;1.47;;;22.00;92.60;;;;;;5052496;28;20454;-82
2024/04/07 11:02:19;;;;;;;3.23;1.13;;;22.40;92.50;;;;;;5051477;28;20486;-81
2024/04/07 11:04:45;;;;;;;3.43;1.27;;;22.50;92.20;;;;;;5053004;28;20464;-80
2024/04/07 11:07:13;;;;;;;1.43;0.87;;;22.30;91.80;;;;;;5053216;28;20443;-82
2024/04/07 11:09:41;;;;;;;4.00;1.50;;;22.10;92.10;;;;;;5053937;28;20476;-82
2024/04/07 11:12:10;;;;;;;5.73;1.37;;;22.20;92.40;;;;;;5049450;28;20432;-84
2024/04/07 11:14:37;;;;;;;5.03;1.10;;;21.90;92.30;;;;;;5054565;28;20468;-81
2024/04/07 11:17:06;;;;;;;2.87;1.20;;;22.00;92.60;;;;;;5055421;28;20548;-81
2024/04/07 11:19:33;;;;;;;2.80;1.60;;;21.90;92.60;;;;;;5050773;28;20446;-81
2024/04/07 11:22:00;;;;;;;1.97;1.20;;;21.70;92.60;;;;;;5053476;28;20467;-82
2024/04/07 11:24:27;;;;;;;2.40;1.00;;;21.60;92.50;;;;;;5050220;28;21032;-81
2024/04/07 11:26:55;;;;;;;5.20;1.17;;;21.70;92.70;;;;;;5050173;28;20532;-80
2024/04/07 11:29:22;;;;;;;1.60;0.93;;;21.80;92.60;;;;;;5044787;28;20450;-81
2024/04/07 11:31:52;;;;;;;2.50;1.10;;;21.90;92.90;;;;;;5050462;28;20478;-80
2024/04/07 11:34:20;;;;;;;5.40;1.30;;;22.00;92.70;;;;;;5045464;28;20480;-81
2024/04/07 11:36:47;;;;;;;3.13;1.00;;;22.20;92.20;;;;;;5048901;28;20512;-80
2024/04/07 11:39:15;;;;;;;3.70;1.50;;;22.10;92.00;;;;;;5050310;28;20433;-84
2024/04/07 11:41:41;;;;;;;3.70;1.20;;;22.00;91.90;;;;;;5051690;28;20450;-84
2024/04/07 11:44:13;;;;;;;5.77;1.60;;;21.80;91.80;;;;;;5048306;28;20449;-80
2024/04/07 11:46:51;;;;;;;3.27;1.60;;;21.70;92.10;;;;;;5048261;28;20447;-83
2024/04/07 11:49:21;;;;;;;4.23;0.90;;;21.60;92.00;;;;;;5033143;28;20496;-83
2024/04/07 11:51:50;;;;;;;4.23;1.33;;;21.70;92.00;;;;;;5048408;28;20428;-80
2024/04/07 11:54:32;;;;;;;3.10;1.37;;;21.80;92.20;;;;;;5045421;28;20478;-85
2024/04/07 11:57:01;;;;;;;2.40;1.20;;;21.80;92.20;;;;;;5045457;28;20575;-80
2024/04/07 11:59:29;;;;;;;2.27;1.20;;;22.10;92.00;;;;;;5039491;28;20438;-80
2024/04/07 12:01:55;;;;;;;2.60;0.90;;;22.00;91.50;;;;;;5047606;28;20447;-82
2024/04/07 12:04:23;;;;;;;2.77;0.90;;;21.90;91.70;;;;;;5051811;23;20538;-75
2024/04/07 12:06:49;;;;;;;3.07;1.33;;;22.10;91.80;;;;;;5028821;28;20480;-74
2024/04/07 12:09:16;;;;;;;3.90;1.57;;;22.10;92.10;;;;;;5031070;28;20443;-73
2024/04/07 12:11:42;;;;;;;2.60;1.40;;;22.20;92.00;;;;;;5024194;28;20783;-74
2024/04/07 12:14:09;;;;;;;2.13;1.20;;;22.30;91.80;;;;;;5030983;28;20447;-75
2024/04/07 12:16:37;;;;;;;5.03;0.90;;;22.10;91.30;;;;;;5032167;28;20808;-75
2024/04/07 12:19:04;;;;;;;2.13;1.17;;;22.00;91.70;;;;;;5032888;28;20464;-77
2024/04/07 12:21:31;;;;;;;4.90;1.07;;;22.00;92.00;;;;;;5031973;28;20501;-76
2024/04/07 12:24:00;;;;;;;4.77;1.00;;;22.20;92.30;;;;;;5028167;28;20450;-75
2024/04/07 12:26:26;;;;;;;3.27;1.87;;;22.30;91.90;;;;;;5019475;28;20884;-76
2024/04/07 12:28:53;;;;;;;3.17;1.90;;;22.20;91.70;;;;;;5025751;28;20529;-76
2024/04/07 12:31:19;;;;;;;3.33;1.50;;;22.20;91.40;;;;;;5024500;28;20457;-76
2024/04/07 12:33:49;;;;;;;2.23;1.53;;;22.10;91.80;;;;;;5027985;28;20513;-74
2024/04/07 12:36:15;;;;;;;3.83;1.23;;;22.00;92.10;;;;;;5021713;28;20472;-74
2024/04/07 12:38:42;;;;;;;2.93;1.33;;;21.90;92.00;;;;;;5026164;28;20483;-77
2024/04/07 12:41:08;;;;;;;2.47;1.10;;;21.90;92.20;;;;;;5032282;28;20501;-76
2024/04/07 12:43:35;;;;;;;3.30;1.50;;;22.00;92.30;;;;;;5031652;28;20823;-76
2024/04/07 12:46:03;;;;;;;3.20;0.93;;;21.90;92.20;;;;;;5032370;28;20801;-76
2024/04/07 12:48:30;;;;;;;4.03;1.37;;;22.00;92.10;;;;;;5032027;28;20444;-76
2024/04/07 12:50:58;;;;;;;2.57;1.50;;;22.00;92.10;;;;;;5031963;28;20451;-76
2024/04/07 12:53:26;;;;;;;2.10;1.30;;;22.00;92.00;;;;;;5025473;28;20487;-76
2024/04/07 12:55:53;;;;;;;2.27;1.10;;;22.00;91.50;;;;;;5028997;28;20454;-77
2024/04/07 12:58:20;;;;;;;7.60;2.00;;;21.90;90.90;;;;;;5034522;28;20475;-77
2024/04/07 13:00:46;;;;;;;2.43;1.10;;;22.00;91.10;;;;;;5035738;28;20847;-77
2024/04/07 13:03:15;;;;;;;2.20;1.17;;;22.20;91.10;;;;;;5035468;28;20472;-76
2024/04/07 13:05:41;;;;;;;3.93;1.40;;;22.10;91.00;;;;;;5035139;28;20462;-76
2024/04/07 13:08:10;;;;;;;1.90;1.10;;;22.10;90.70;;;;;;5035130;28;20443;-76